Miller, Missouri
Current Conditions -  °F | °C
As of 10:55 PM on Friday 28 Nov 2014 (Local Time) from KHFJ Reporting Station
Clear Clear  
Wind Chill: 52°   Ceiling: Unl
Heat Index: 52°   Visibility: 10mi
Dew Point: 43°   Wind: 18mph
Humidity: 71%   Direction: 200°SSW
Pressure: 29.87"   Gusts: 23mph
Location:  37.21°N, 93.84°W
Report Text: KHFJ 290455Z AUTO 20016G20KT 10SM CLR 11/06 A2987 RMK AO2
Loading
Personal Weather Stations






























Interactive Weather Map New forecast layout! Learn more

10-Day Weather Forecast

Advertisements
Track Severe Weather on mobile